createdAt,value
2022-12-19T00:00:32.681Z,25.90
2022-12-19T00:05:38.993Z,24.75
2022-12-19T00:10:41.307Z,25.02
2022-12-19T00:15:43.134Z,27.33
2022-12-19T00:20:44.670Z,23.33
2022-12-19T00:25:46.057Z,25.50
2022-12-19T00:30:48.504Z,31.90
2022-12-19T00:35:49.895Z,25.38
2022-12-19T00:40:51.353Z,29.50
2022-12-19T00:45:52.866Z,24.83
2022-12-19T00:51:02.065Z,26.83
2022-12-19T00:56:06.176Z,26.42
2022-12-19T01:01:15.257Z,24.88
2022-12-19T01:06:17.299Z,23.48
2022-12-19T01:11:38.828Z,24.85
2022-12-19T01:16:40.382Z,21.08
2022-12-19T01:21:42.302Z,25.55
2022-12-19T01:26:44.419Z,23.43
2022-12-19T01:31:46.961Z,24.30
2022-12-19T01:36:49.322Z,24.33
2022-12-19T01:41:50.794Z,25.92
2022-12-19T01:46:59.382Z,23.60
2022-12-19T01:52:07.135Z,26.02
2022-12-19T01:57:14.048Z,27.77
2022-12-19T02:02:29.313Z,25.50
2022-12-19T02:07:32.672Z,23.30
2022-12-19T02:17:53.618Z,29.77
2022-12-19T02:22:55.984Z,27.25
2022-12-19T02:28:00.536Z,27.63
2022-12-19T02:33:13.789Z,24.65
2022-12-19T02:38:18.440Z,27.40
2022-12-19T02:43:23.206Z,26.65
2022-12-19T02:48:26.655Z,28.30
2022-12-19T02:53:29.493Z,26.80
2022-12-19T02:59:02.436Z,27.35
2022-12-19T03:04:15.819Z,26.38
2022-12-19T03:09:37.792Z,27.83
2022-12-19T03:14:39.684Z,24.40
2022-12-19T03:19:42.180Z,23.48
2022-12-19T03:24:43.663Z,26.63
2022-12-19T03:30:03.036Z,25.65
2022-12-19T03:35:10.707Z,21.88
2022-12-19T03:40:17.748Z,20.35
2022-12-19T03:45:26.692Z,21.48
2022-12-19T03:50:38.469Z,23.00
2022-12-19T03:55:47.381Z,25.58
2022-12-19T04:00:50.758Z,23.25
2022-12-19T04:05:54.151Z,23.08
2022-12-19T04:11:01.377Z,23.17
2022-12-19T04:16:27.518Z,23.60
2022-12-19T04:21:40.458Z,27.75
2022-12-19T04:26:46.877Z,26.73
2022-12-19T04:31:48.845Z,25.90
2022-12-19T04:36:51.136Z,23.23
2022-12-19T04:41:52.542Z,19.98
2022-12-19T04:46:54.203Z,17.20
2022-12-19T04:51:55.756Z,20.20
2022-12-19T04:56:57.270Z,19.85
2022-12-19T05:01:58.768Z,19.08
2022-12-19T05:07:01.086Z,16.70
2022-12-19T05:12:02.493Z,16.58
2022-12-19T05:17:04.223Z,18.75
2022-12-19T05:22:05.726Z,17.48
2022-12-19T05:27:07.881Z,19.23
2022-12-19T05:32:09.307Z,17.83
2022-12-19T05:37:10.706Z,17.00
2022-12-19T05:42:12.663Z,20.38
2022-12-19T05:47:14.316Z,16.08
2022-12-19T05:52:15.828Z,17.75
2022-12-19T05:57:17.362Z,16.92
2022-12-19T06:02:18.904Z,15.70
2022-12-19T06:07:21.231Z,18.42
2022-12-19T06:12:22.921Z,17.70
2022-12-19T06:17:24.373Z,14.65
2022-12-19T06:22:25.885Z,19.48
2022-12-19T06:27:27.296Z,18.40
2022-12-19T06:32:31.325Z,17.63
2022-12-19T06:37:38.925Z,16.58
2022-12-19T06:42:40.842Z,17.88
2022-12-19T06:47:42.253Z,19.02
2022-12-19T06:52:43.657Z,15.02
2022-12-19T06:57:46.407Z,16.85
2022-12-19T07:02:51.684Z,17.43
2022-12-19T07:07:53.374Z,18.65
2022-12-19T07:12:54.970Z,16.42
2022-12-19T07:17:56.535Z,21.70
2022-12-19T07:22:57.965Z,21.10
2022-12-19T07:27:59.983Z,21.25
2022-12-19T07:33:01.484Z,20.38
2022-12-19T07:38:04.833Z,20.50
2022-12-19T07:43:06.738Z,22.50
2022-12-19T07:48:08.621Z,17.55
2022-12-19T07:53:10.093Z,18.17
2022-12-19T07:58:11.683Z,16.60
2022-12-19T08:03:15.749Z,14.70
2022-12-19T08:08:17.887Z,17.13
2022-12-19T08:13:19.430Z,18.63
2022-12-19T08:18:20.850Z,17.83
2022-12-19T08:23:22.481Z,19.48
2022-12-19T08:28:24.017Z,19.83
2022-12-19T08:33:25.419Z,19.23
2022-12-19T08:38:27.020Z,21.65
2022-12-19T08:43:28.994Z,19.67
2022-12-19T08:48:34.198Z,17.75
2022-12-19T08:53:39.075Z,16.77
2022-12-19T08:58:41.090Z,21.08
2022-12-19T09:03:59.568Z,23.50
2022-12-19T09:09:05.055Z,20.95
2022-12-19T09:14:06.523Z,24.60
2022-12-19T09:19:07.959Z,20.58
2022-12-19T09:24:10.536Z,20.23
2022-12-19T09:29:20.026Z,23.03
2022-12-19T09:34:24.054Z,23.98
2022-12-19T09:39:26.720Z,23.48
2022-12-19T09:45:22.202Z,21.30
2022-12-19T09:50:44.522Z,24.00
2022-12-19T09:55:47.682Z,17.95
2022-12-19T10:00:56.804Z,23.63
2022-12-19T10:07:00.724Z,16.48
2022-12-19T10:12:39.689Z,18.90
2022-12-19T10:17:34.153Z,19.45
2022-12-19T10:22:52.891Z,18.83
2022-12-19T10:28:32.801Z,19.40
2022-12-19T10:33:48.787Z,20.13
2022-12-19T10:39:06.471Z,20.10
2022-12-19T10:44:14.509Z,20.55
2022-12-19T10:49:17.461Z,18.02
2022-12-19T10:54:19.203Z,19.02
2022-12-19T10:59:21.289Z,20.75
2022-12-19T11:04:29.748Z,21.58
2022-12-19T11:09:37.484Z,19.38
2022-12-19T11:22:16.938Z,25.98
2022-12-19T11:29:37.163Z,22.88
2022-12-19T11:30:25.557Z,17.40
2022-12-19T11:36:44.715Z,19.30
2022-12-19T11:41:55.143Z,24.45
2022-12-19T11:47:10.931Z,20.95
2022-12-19T11:57:48.251Z,25.00
2022-12-19T12:02:58.859Z,17.00
2022-12-19T12:10:31.970Z,18.52
2022-12-19T12:25:47.074Z,21.65
2022-12-19T12:31:01.284Z,20.27
2022-12-19T12:31:42.239Z,19.27
2022-12-19T12:43:08.961Z,16.58
2022-12-19T12:48:29.978Z,17.45
2022-12-19T12:53:38.406Z,17.60
2022-12-19T12:58:53.822Z,14.77
2022-12-19T13:03:58.750Z,15.15
2022-12-19T13:09:09.293Z,14.60
2022-12-19T13:14:35.764Z,13.13
2022-12-19T13:19:58.576Z,17.40
2022-12-19T13:25:00.564Z,12.73
2022-12-19T13:30:12.347Z,15.27
2022-12-19T13:35:45.364Z,14.13
2022-12-19T13:40:44.159Z,18.27
2022-12-19T13:45:51.695Z,18.63
2022-12-19T13:50:54.774Z,19.08
2022-12-19T13:56:02.056Z,19.30
2022-12-19T14:01:20.067Z,15.07
2022-12-19T14:06:30.061Z,17.63
2022-12-19T14:13:44.221Z,18.70
2022-12-19T14:17:12.361Z,15.55
2022-12-19T14:22:26.058Z,17.53
2022-12-19T14:28:26.482Z,13.73
2022-12-19T14:33:39.955Z,17.92
2022-12-19T14:39:21.975Z,21.67
2022-12-19T14:54:18.066Z,16.00
2022-12-19T14:55:59.080Z,14.23
2022-12-19T15:01:09.042Z,14.52
2022-12-19T15:06:32.119Z,18.75
2022-12-19T15:12:39.338Z,14.90
2022-12-19T15:17:27.530Z,14.35
2022-12-19T15:22:28.914Z,13.25
2022-12-19T15:27:31.488Z,12.90
2022-12-19T15:32:33.157Z,15.73
2022-12-19T15:37:34.545Z,18.15
2022-12-19T15:42:36.030Z,16.73
2022-12-19T15:47:37.565Z,18.27
2022-12-19T15:52:39.031Z,17.05
2022-12-19T15:57:44.332Z,18.15
2022-12-19T16:03:22.636Z,19.30
2022-12-19T16:08:16.678Z,17.38
2022-12-19T16:13:22.342Z,19.70
2022-12-19T16:18:23.793Z,17.52
2022-12-19T16:23:25.954Z,19.15
2022-12-19T16:28:34.828Z,18.52
2022-12-19T16:33:36.270Z,18.08
2022-12-19T16:38:37.671Z,17.52
2022-12-19T16:43:43.306Z,18.95
2022-12-19T16:48:45.225Z,17.17
2022-12-19T16:53:48.035Z,15.05
2022-12-19T16:58:49.811Z,17.33
2022-12-19T17:03:51.305Z,17.55
2022-12-19T17:08:52.733Z,15.27
2022-12-19T17:14:03.627Z,16.70
2022-12-19T17:19:05.185Z,17.75
2022-12-19T17:24:13.395Z,19.40
2022-12-19T17:29:15.356Z,18.70
2022-12-19T17:34:28.089Z,18.42
2022-12-19T17:39:32.945Z,18.52
2022-12-19T17:44:34.332Z,16.90
2022-12-19T17:49:35.839Z,17.23
2022-12-19T17:54:37.796Z,18.90
2022-12-19T17:59:39.348Z,16.55
2022-12-19T18:04:40.777Z,19.10
2022-12-19T18:09:42.254Z,18.98
2022-12-19T18:14:43.681Z,18.80
2022-12-19T18:19:45.112Z,17.83
2022-12-19T18:24:46.737Z,16.73
2022-12-19T18:29:48.270Z,18.13
2022-12-19T18:34:50.226Z,16.70
2022-12-19T18:39:55.391Z,15.43
2022-12-19T18:44:56.800Z,16.23
2022-12-19T18:49:58.232Z,15.65
2022-12-19T18:54:59.675Z,16.13
2022-12-19T19:00:01.071Z,13.95
2022-12-19T19:05:02.669Z,14.00
2022-12-19T19:10:16.869Z,14.55
2022-12-19T19:15:31.421Z,15.50
2022-12-19T19:20:36.608Z,15.07
2022-12-19T19:25:38.061Z,15.10
2022-12-19T19:30:40.425Z,13.85
2022-12-19T19:35:45.106Z,13.85
2022-12-19T19:40:46.563Z,16.25
2022-12-19T19:45:49.924Z,16.38
2022-12-19T19:50:51.339Z,14.32
2022-12-19T19:56:02.861Z,16.25
2022-12-19T20:01:12.101Z,14.98
2022-12-19T20:06:13.642Z,16.25
2022-12-19T20:11:15.425Z,15.00
2022-12-19T20:16:18.817Z,16.60
2022-12-19T20:21:21.020Z,18.08
2022-12-19T20:26:22.583Z,17.42
2022-12-19T20:31:24.153Z,19.83
2022-12-19T20:36:25.897Z,22.15
2022-12-19T20:41:27.380Z,21.10
2022-12-19T20:46:28.845Z,19.88
2022-12-19T20:51:30.275Z,18.58
2022-12-19T20:56:31.714Z,20.95
2022-12-19T21:01:33.471Z,23.20
2022-12-19T21:06:37.534Z,18.73
2022-12-19T21:11:38.931Z,21.98
2022-12-19T21:16:40.470Z,17.98
2022-12-19T21:21:42.076Z,21.90
2022-12-19T21:26:43.553Z,24.15
2022-12-19T21:31:45.056Z,22.15
2022-12-19T21:36:46.726Z,22.75
2022-12-19T21:41:48.172Z,22.33
2022-12-19T21:46:49.665Z,25.40
2022-12-19T21:51:51.265Z,22.88
2022-12-19T21:56:52.802Z,21.48
2022-12-19T22:01:54.588Z,22.95
2022-12-19T22:06:56.261Z,22.35
2022-12-19T22:11:57.744Z,20.55
2022-12-19T22:16:59.196Z,21.83
2022-12-19T22:22:00.637Z,22.42
2022-12-19T22:27:02.132Z,22.65
2022-12-19T22:32:04.313Z,20.10
2022-12-19T22:37:05.932Z,22.43
2022-12-19T22:42:07.372Z,24.15
2022-12-19T22:47:08.830Z,23.00
2022-12-19T22:52:10.254Z,23.52
2022-12-19T22:57:11.949Z,20.85
2022-12-19T23:02:13.655Z,27.17
2022-12-19T23:07:24.073Z,26.80
2022-12-19T23:12:25.576Z,22.05
2022-12-19T23:17:27.138Z,21.23
2022-12-19T23:22:28.588Z,25.08
2022-12-19T23:27:30.287Z,24.13
2022-12-19T23:32:32.022Z,24.15
2022-12-19T23:37:33.464Z,25.65
2022-12-19T23:42:35.400Z,22.80
2022-12-19T23:47:37.377Z,22.83
2022-12-19T23:52:39.062Z,24.25
2022-12-19T23:57:40.595Z,23.98
